createdAt,value
2022-09-28T00:01:17.529Z,12.78
2022-09-28T00:03:45.896Z,12.65
2022-09-28T00:06:16.075Z,12.65
2022-09-28T00:08:44.051Z,12.63
2022-09-28T00:11:16.227Z,12.57
2022-09-28T00:13:46.107Z,12.62
2022-09-28T00:16:16.892Z,12.56
2022-09-28T00:18:45.659Z,12.55
2022-09-28T00:21:15.776Z,12.52
2022-09-28T00:23:58.603Z,12.56
2022-09-28T00:26:28.572Z,12.32
2022-09-28T00:28:58.545Z,12.43
2022-09-28T00:31:28.116Z,12.53
2022-09-28T00:33:56.966Z,12.51
2022-09-28T00:36:27.121Z,12.50
2022-09-28T00:38:56.407Z,12.46
2022-09-28T00:41:25.247Z,12.44
2022-09-28T00:43:54.937Z,12.46
2022-09-28T00:46:32.087Z,12.48
2022-09-28T00:49:04.245Z,12.49
2022-09-28T00:51:33.600Z,12.37
2022-09-28T00:54:05.325Z,12.26
2022-09-28T00:56:35.612Z,12.52
2022-09-28T00:59:05.763Z,12.46
2022-09-28T01:01:33.645Z,12.48
2022-09-28T01:04:04.880Z,12.52
2022-09-28T01:06:35.796Z,12.54
2022-09-28T01:09:07.736Z,12.52
2022-09-28T01:11:39.020Z,12.50
2022-09-28T01:14:11.564Z,12.45
2022-09-28T01:16:43.263Z,12.40
2022-09-28T01:19:27.593Z,12.30
2022-09-28T01:22:00.999Z,12.18
2022-09-28T01:24:43.178Z,12.17
2022-09-28T01:27:20.996Z,12.14
2022-09-28T01:29:55.952Z,12.15
2022-09-28T01:32:37.402Z,11.99
2022-09-28T01:35:11.809Z,12.01
2022-09-28T01:37:48.513Z,11.97
2022-09-28T01:40:18.233Z,11.95
2022-09-28T01:42:50.953Z,11.99
2022-09-28T01:45:24.749Z,12.02
2022-09-28T01:47:55.232Z,12.06
2022-09-28T01:50:26.532Z,11.88
2022-09-28T01:53:01.074Z,11.68
2022-09-28T01:55:33.408Z,11.70
2022-09-28T01:58:06.830Z,11.68
2022-09-28T02:00:37.226Z,11.52
2022-09-28T02:03:12.514Z,11.54
2022-09-28T02:05:43.163Z,11.48
2022-09-28T02:08:15.884Z,11.45
2022-09-28T02:10:47.431Z,11.51
2022-09-28T02:13:21.947Z,11.54
2022-09-28T02:15:54.093Z,11.57
2022-09-28T02:18:22.078Z,11.52
2022-09-28T02:20:54.098Z,11.53
2022-09-28T02:23:25.582Z,11.56
2022-09-28T02:25:59.415Z,11.56
2022-09-28T02:28:28.842Z,11.60
2022-09-28T02:30:57.131Z,11.68
2022-09-28T02:33:31.433Z,11.57
2022-09-28T02:36:01.027Z,11.59
2022-09-28T02:38:28.922Z,11.63
2022-09-28T02:41:05.846Z,11.66
2022-09-28T02:43:48.092Z,11.46
2022-09-28T02:46:28.279Z,11.35
2022-09-28T02:49:24.378Z,11.45
2022-09-28T02:52:09.464Z,11.55
2022-09-28T02:55:11.598Z,11.47
2022-09-28T02:57:50.556Z,11.39
2022-09-28T03:00:22.866Z,11.27
2022-09-28T03:02:58.427Z,10.99
2022-09-28T03:05:34.256Z,11.05
2022-09-28T03:08:04.950Z,11.11
2022-09-28T03:10:40.004Z,11.02
2022-09-28T03:13:09.332Z,11.24
2022-09-28T03:15:38.947Z,11.32
2022-09-28T03:18:06.979Z,11.39
2022-09-28T03:20:35.292Z,11.41
2022-09-28T03:23:23.819Z,11.48
2022-09-28T03:25:51.379Z,11.47
2022-09-28T03:28:19.512Z,11.57
2022-09-28T03:30:48.741Z,11.50
2022-09-28T03:33:17.227Z,11.58
2022-09-28T03:35:47.876Z,11.59
2022-09-28T03:38:15.798Z,11.37
2022-09-28T03:40:43.775Z,11.52
2022-09-28T03:43:11.727Z,11.63
2022-09-28T03:45:39.639Z,11.67
2022-09-28T03:48:09.012Z,11.77
2022-09-28T03:50:36.964Z,11.74
2022-09-28T03:53:05.416Z,11.72
2022-09-28T03:55:33.738Z,11.87
2022-09-28T03:58:01.646Z,11.86
2022-09-28T04:00:29.963Z,11.92
2022-09-28T04:02:57.865Z,11.97
2022-09-28T04:05:27.154Z,11.96
2022-09-28T04:07:57.876Z,12.03
2022-09-28T04:10:26.143Z,12.01
2022-09-28T04:12:55.901Z,12.04
2022-09-28T04:15:24.445Z,12.10
2022-09-28T04:17:52.808Z,12.02
2022-09-28T04:20:20.814Z,11.93
2022-09-28T04:22:50.451Z,12.05
2022-09-28T04:25:18.435Z,12.13
2022-09-28T04:28:03.754Z,12.12
2022-09-28T04:30:31.683Z,12.07
2022-09-28T04:32:59.607Z,12.11
2022-09-28T04:35:27.746Z,12.03
2022-09-28T04:37:57.216Z,12.16
2022-09-28T04:40:25.188Z,12.12
2022-09-28T04:42:56.642Z,12.12
2022-09-28T04:45:26.138Z,12.00
2022-09-28T04:47:54.638Z,12.08
2022-09-28T04:50:22.646Z,12.26
2022-09-28T04:52:50.599Z,12.31
2022-09-28T04:55:20.673Z,12.30
2022-09-28T04:57:48.581Z,12.24
2022-09-28T05:00:17.282Z,12.25
2022-09-28T05:02:45.639Z,12.19
2022-09-28T05:05:13.768Z,12.36
2022-09-28T05:07:42.040Z,12.36
2022-09-28T05:10:10.235Z,12.21
2022-09-28T05:12:39.674Z,12.34
2022-09-28T05:15:08.295Z,12.36
2022-09-28T05:17:36.562Z,12.28
2022-09-28T05:20:05.242Z,12.33
2022-09-28T05:22:34.265Z,12.47
2022-09-28T05:25:02.981Z,12.45
2022-09-28T05:27:30.851Z,12.54
2022-09-28T05:30:00.150Z,12.49
2022-09-28T05:32:28.053Z,12.65
2022-09-28T05:34:56.252Z,12.69
2022-09-28T05:37:24.194Z,12.76
2022-09-28T05:39:52.157Z,12.74
2022-09-28T05:42:20.091Z,12.71
2022-09-28T05:44:47.983Z,12.80
2022-09-28T05:47:17.292Z,12.83
2022-09-28T05:49:45.431Z,12.75
2022-09-28T05:52:13.285Z,12.74
2022-09-28T05:54:41.200Z,12.81
2022-09-28T05:57:09.199Z,12.87
2022-09-28T05:59:37.140Z,13.07
2022-09-28T06:02:06.401Z,13.18
2022-09-28T06:04:35.704Z,13.19
2022-09-28T06:07:03.822Z,13.43
2022-09-28T06:09:31.946Z,13.47
2022-09-28T06:12:00.339Z,13.62
2022-09-28T06:14:28.566Z,13.55
2022-09-28T06:16:56.528Z,13.70
2022-09-28T06:19:24.462Z,13.78
2022-09-28T06:21:54.827Z,13.95
2022-09-28T06:24:22.736Z,13.94
2022-09-28T06:26:50.622Z,13.92
2022-09-28T06:29:19.750Z,13.79
2022-09-28T06:31:48.408Z,13.72
2022-09-28T06:34:16.786Z,13.62
2022-09-28T06:36:44.805Z,13.43
2022-09-28T06:39:14.187Z,13.33
2022-09-28T06:41:42.605Z,13.42
2022-09-28T06:44:10.620Z,13.31
2022-09-28T06:46:40.201Z,13.38
2022-09-28T06:49:09.307Z,13.47
2022-09-28T06:51:37.741Z,13.44
2022-09-28T06:54:05.857Z,13.44
2022-09-28T06:56:35.204Z,13.25
2022-09-28T06:59:03.155Z,13.17
2022-09-28T07:01:31.242Z,13.36
2022-09-28T07:04:01.912Z,13.48
2022-09-28T07:06:31.482Z,13.52
2022-09-28T07:09:21.498Z,13.65
2022-09-28T07:11:52.731Z,13.78
2022-09-28T07:14:40.187Z,13.84
2022-09-28T07:17:13.994Z,14.01
2022-09-28T07:19:42.613Z,14.08
2022-09-28T07:22:18.516Z,14.01
2022-09-28T07:24:47.934Z,13.96
2022-09-28T07:27:17.261Z,13.99
2022-09-28T07:29:45.128Z,14.00
2022-09-28T07:32:13.079Z,13.92
2022-09-28T07:34:43.807Z,14.01
2022-09-28T07:37:12.564Z,14.24
2022-09-28T07:39:54.757Z,14.34
2022-09-28T07:42:24.239Z,14.33
2022-09-28T07:44:52.786Z,14.45
2022-09-28T07:47:29.629Z,14.51
2022-09-28T07:50:00.870Z,14.51
2022-09-28T07:52:28.910Z,14.73
2022-09-28T07:54:57.730Z,14.99
2022-09-28T07:57:27.129Z,15.00
2022-09-28T07:59:55.473Z,15.13
2022-09-28T08:02:23.592Z,15.04
2022-09-28T08:04:51.767Z,15.12
2022-09-28T08:07:23.822Z,15.33
2022-09-28T08:09:52.243Z,15.45
2022-09-28T08:12:21.182Z,15.52
2022-09-28T08:14:52.266Z,15.65
2022-09-28T08:17:20.306Z,15.69
2022-09-28T08:20:05.449Z,15.90
2022-09-28T08:22:33.569Z,15.99
2022-09-28T08:25:01.449Z,16.05
2022-09-28T08:27:29.405Z,16.13
2022-09-28T08:29:58.675Z,16.38
2022-09-28T08:32:26.579Z,16.35
2022-09-28T08:34:56.020Z,16.56
2022-09-28T08:37:24.190Z,16.56
2022-09-28T08:39:52.245Z,16.57
2022-09-28T08:42:34.125Z,16.63
2022-09-28T08:45:09.026Z,16.50
2022-09-28T08:48:01.901Z,16.67
2022-09-28T08:50:33.706Z,16.66
2022-09-28T08:53:07.761Z,16.69
2022-09-28T08:55:38.950Z,16.81
2022-09-28T08:58:13.017Z,16.90
2022-09-28T09:00:47.018Z,17.01
2022-09-28T09:03:21.251Z,17.20
2022-09-28T09:06:00.311Z,17.14
2022-09-28T09:08:42.502Z,17.34
2022-09-28T09:11:22.163Z,17.45
2022-09-28T09:14:17.519Z,17.50
2022-09-28T09:17:00.370Z,17.56
2022-09-28T09:19:36.424Z,17.56
2022-09-28T09:22:15.525Z,17.55
2022-09-28T09:24:50.487Z,17.71
2022-09-28T09:27:42.575Z,17.76
2022-09-28T09:30:12.892Z,17.99
2022-09-28T09:33:08.309Z,18.10
2022-09-28T09:36:00.270Z,18.23
2022-09-28T09:38:46.709Z,18.32
2022-09-28T09:41:26.851Z,18.41
2022-09-28T09:44:39.826Z,18.56
2022-09-28T09:47:10.759Z,18.82
2022-09-28T09:49:44.391Z,19.05
2022-09-28T09:52:19.708Z,19.53
2022-09-28T09:54:52.454Z,20.12
2022-09-28T09:57:23.591Z,20.87
2022-09-28T09:59:51.640Z,21.52
2022-09-28T10:02:25.254Z,22.02
2022-09-28T10:04:58.635Z,22.43
2022-09-28T10:07:34.533Z,22.63
2022-09-28T10:10:04.396Z,22.94
2022-09-28T10:12:32.334Z,23.16
2022-09-28T10:15:02.985Z,23.19
2022-09-28T10:17:31.041Z,23.60
2022-09-28T10:20:00.315Z,23.91
2022-09-28T10:22:29.903Z,24.29
2022-09-28T10:24:59.275Z,24.56
2022-09-28T10:27:30.709Z,24.59
2022-09-28T10:30:03.688Z,24.98
2022-09-28T10:32:39.150Z,25.18
2022-09-28T10:35:24.925Z,25.13
2022-09-28T10:37:59.289Z,25.23
2022-09-28T10:40:41.490Z,25.29
2022-09-28T10:43:21.644Z,25.06
2022-09-28T10:45:49.932Z,25.42
2022-09-28T10:48:21.452Z,25.52
2022-09-28T10:51:09.247Z,25.86
2022-09-28T10:53:38.130Z,26.25
2022-09-28T10:56:09.524Z,26.22
2022-09-28T10:58:40.629Z,26.38
2022-09-28T11:01:11.895Z,26.32
2022-09-28T11:03:50.946Z,26.24
2022-09-28T11:06:28.223Z,26.63
2022-09-28T11:08:59.397Z,26.76
2022-09-28T11:11:28.743Z,27.22
2022-09-28T11:14:01.207Z,27.61
2022-09-28T11:16:30.901Z,27.76
2022-09-28T11:19:04.228Z,28.09
2022-09-28T11:21:42.945Z,28.26
2022-09-28T11:24:21.157Z,28.23
2022-09-28T11:26:53.779Z,28.36
2022-09-28T11:29:26.860Z,28.39
2022-09-28T11:32:00.203Z,27.53
2022-09-28T11:34:57.507Z,27.60
2022-09-28T11:37:57.296Z,27.70
2022-09-28T11:40:32.861Z,27.79
2022-09-28T11:43:15.760Z,27.53
2022-09-28T11:46:00.367Z,27.99
2022-09-28T11:48:35.924Z,28.04
2022-09-28T11:51:08.460Z,28.24
2022-09-28T11:53:41.732Z,28.03
2022-09-28T11:56:32.495Z,27.96
2022-09-28T11:59:05.167Z,26.94
2022-09-28T12:01:39.883Z,26.56
2022-09-28T12:04:14.911Z,26.12
2022-09-28T12:06:50.889Z,25.62
2022-09-28T12:09:24.015Z,25.08
2022-09-28T12:11:57.605Z,24.99
2022-09-28T12:14:30.107Z,25.07
2022-09-28T12:17:07.337Z,25.14
2022-09-28T12:19:41.189Z,24.94
2022-09-28T12:22:18.315Z,24.78
2022-09-28T12:24:52.072Z,24.81
2022-09-28T12:27:28.998Z,24.61
2022-09-28T12:30:03.297Z,24.48
2022-09-28T12:32:37.571Z,24.60
2022-09-28T12:35:13.167Z,24.59
2022-09-28T12:37:55.567Z,24.60
2022-09-28T12:43:31.233Z,24.73
2022-09-28T12:46:26.536Z,24.72
2022-09-28T12:50:01.795Z,24.80
2022-09-28T12:52:00.016Z,24.70
2022-09-28T12:55:04.113Z,24.46
2022-09-28T12:57:41.349Z,24.55
2022-09-28T13:00:13.187Z,24.11
2022-09-28T13:03:27.048Z,23.98
2022-09-28T13:06:20.992Z,23.30
2022-09-28T13:09:06.099Z,23.15
2022-09-28T13:11:42.255Z,22.99
2022-09-28T13:14:39.390Z,23.17
2022-09-28T13:17:20.353Z,23.73
2022-09-28T13:19:55.610Z,24.26
2022-09-28T13:22:34.035Z,24.88
2022-09-28T13:25:10.013Z,25.82
2022-09-28T13:27:41.388Z,26.66
2022-09-28T13:30:15.723Z,26.80
2022-09-28T13:32:45.084Z,27.04
2022-09-28T13:35:15.625Z,26.65
2022-09-28T13:37:43.494Z,27.12
2022-09-28T13:40:12.749Z,27.07
2022-09-28T13:42:59.892Z,26.25
2022-09-28T13:46:04.522Z,25.66
2022-09-28T13:48:46.076Z,25.66
2022-09-28T13:51:27.358Z,25.10
2022-09-28T13:54:17.343Z,25.76
2022-09-28T13:56:54.360Z,25.61
2022-09-28T13:59:27.216Z,25.17
2022-09-28T14:02:06.782Z,24.51
2022-09-28T14:04:57.634Z,24.19
2022-09-28T14:10:20.949Z,23.44
2022-09-28T14:12:51.365Z,23.25
2022-09-28T14:15:49.484Z,22.99
2022-09-28T14:18:39.547Z,22.92
2022-09-28T14:21:43.621Z,22.86
2022-09-28T14:24:26.672Z,22.70
2022-09-28T14:27:12.170Z,22.58
2022-09-28T14:29:41.267Z,22.50
2022-09-28T14:32:25.241Z,22.41
2022-09-28T14:35:00.801Z,22.35
2022-09-28T14:37:48.730Z,22.29
2022-09-28T14:40:39.784Z,22.22
2022-09-28T14:43:27.748Z,22.15
2022-09-28T14:46:32.172Z,22.14
2022-09-28T14:49:03.233Z,22.19
2022-09-28T14:52:03.349Z,22.39
2022-09-28T14:54:42.956Z,22.46
2022-09-28T14:57:18.553Z,22.53
2022-09-28T14:59:48.163Z,22.50
2022-09-28T15:02:27.491Z,22.56
2022-09-28T15:05:00.157Z,22.52
2022-09-28T15:07:34.333Z,22.47
2022-09-28T15:10:03.389Z,22.59
2022-09-28T15:12:32.481Z,22.66
2022-09-28T15:15:03.233Z,23.18
2022-09-28T15:17:39.293Z,23.47
2022-09-28T15:20:24.501Z,23.43
2022-09-28T15:22:57.598Z,22.94
2022-09-28T15:25:28.264Z,22.74
2022-09-28T15:27:58.526Z,22.65
2022-09-28T15:30:29.129Z,22.89
2022-09-28T15:33:18.502Z,22.72
2022-09-28T15:35:48.791Z,22.94
2022-09-28T15:38:18.546Z,23.20
2022-09-28T15:40:47.838Z,23.18
2022-09-28T15:43:26.932Z,23.19
2022-09-28T15:46:02.975Z,22.97
2022-09-28T15:48:34.483Z,22.91
2022-09-28T15:51:10.970Z,22.62
2022-09-28T15:53:48.447Z,22.49
2022-09-28T15:56:16.337Z,22.24
2022-09-28T15:58:44.783Z,22.10
2022-09-28T16:01:35.963Z,21.87
2022-09-28T16:04:39.436Z,21.66
2022-09-28T16:07:20.445Z,21.65
2022-09-28T16:10:02.791Z,21.60
2022-09-28T16:12:42.073Z,21.18
2022-09-28T16:15:18.194Z,21.01
2022-09-28T16:17:51.730Z,20.78
2022-09-28T16:20:28.595Z,20.87
2022-09-28T16:22:59.497Z,20.66
2022-09-28T16:25:28.845Z,20.76
2022-09-28T16:27:57.500Z,20.75
2022-09-28T16:30:29.046Z,20.78
2022-09-28T16:32:59.069Z,20.46
2022-09-28T16:35:29.869Z,20.58
2022-09-28T16:38:10.364Z,20.70
2022-09-28T16:40:43.030Z,20.30
2022-09-28T16:43:20.337Z,20.45
2022-09-28T16:45:48.321Z,20.40
2022-09-28T16:48:20.431Z,20.26
2022-09-28T16:50:48.298Z,20.26
2022-09-28T16:53:35.621Z,20.43
2022-09-28T16:56:06.096Z,20.28
2022-09-28T16:58:34.223Z,20.37
2022-09-28T17:01:02.284Z,20.19
2022-09-28T17:03:30.537Z,20.34
2022-09-28T17:05:58.558Z,19.88
2022-09-28T17:08:26.906Z,19.97
2022-09-28T17:11:13.943Z,20.02
2022-09-28T17:13:47.174Z,19.88
2022-09-28T17:16:17.911Z,20.11
2022-09-28T17:18:46.995Z,19.95
2022-09-28T17:21:18.107Z,19.92
2022-09-28T17:23:47.769Z,19.85
2022-09-28T17:26:21.812Z,20.03
2022-09-28T17:28:51.080Z,20.13
2022-09-28T17:31:19.034Z,19.81
2022-09-28T17:33:47.222Z,20.00
2022-09-28T17:36:17.353Z,20.02
2022-09-28T17:38:46.864Z,20.02
2022-09-28T17:41:20.206Z,19.93
2022-09-28T17:43:50.572Z,19.80
2022-09-28T17:46:27.610Z,19.84
2022-09-28T17:48:57.591Z,19.93
2022-09-28T17:51:25.588Z,19.61
2022-09-28T17:53:54.415Z,19.59
2022-09-28T17:56:22.330Z,19.69
2022-09-28T17:58:52.556Z,19.59
2022-09-28T18:01:21.067Z,19.66
2022-09-28T18:03:48.998Z,19.42
2022-09-28T18:06:19.754Z,19.52
2022-09-28T18:08:47.809Z,19.67
2022-09-28T18:11:15.917Z,19.64
2022-09-28T18:13:45.974Z,19.43
2022-09-28T18:16:15.887Z,19.44
2022-09-28T18:18:43.982Z,19.51
2022-09-28T18:21:12.364Z,19.76
2022-09-28T18:23:40.579Z,19.96
2022-09-28T18:26:12.086Z,19.97
2022-09-28T18:28:40.101Z,19.69
2022-09-28T18:31:08.746Z,19.40
2022-09-28T18:33:38.474Z,19.09
2022-09-28T18:36:07.420Z,18.70
2022-09-28T18:38:36.801Z,18.43
2022-09-28T18:41:10.185Z,18.37
2022-09-28T18:43:38.760Z,18.28
2022-09-28T18:46:09.402Z,18.11
2022-09-28T18:48:40.645Z,18.04
2022-09-28T18:51:10.115Z,17.87
2022-09-28T18:53:38.492Z,17.79
2022-09-28T18:56:08.352Z,17.47
2022-09-28T18:58:37.086Z,17.48
2022-09-28T19:01:29.074Z,17.61
2022-09-28T19:04:00.145Z,17.53
2022-09-28T19:06:28.806Z,17.53
2022-09-28T19:08:57.440Z,17.73
2022-09-28T19:11:26.712Z,17.75
2022-09-28T19:13:56.543Z,17.77
2022-09-28T19:16:26.192Z,17.79
2022-09-28T19:18:54.180Z,17.71
2022-09-28T19:21:23.843Z,17.70
2022-09-28T19:23:53.616Z,17.72
2022-09-28T19:26:23.865Z,17.83
2022-09-28T19:28:52.274Z,17.55
2022-09-28T19:31:21.597Z,17.78
2022-09-28T19:33:50.059Z,17.81
2022-09-28T19:36:21.906Z,17.87
2022-09-28T19:38:51.845Z,18.10
2022-09-28T19:41:38.997Z,18.06
2022-09-28T19:44:12.051Z,17.92
2022-09-28T19:46:40.817Z,17.73
2022-09-28T19:49:10.723Z,18.09
2022-09-28T19:51:51.513Z,18.15
2022-09-28T19:54:36.198Z,18.05
2022-09-28T19:57:07.742Z,17.94
2022-09-28T19:59:36.708Z,18.11
2022-09-28T20:02:05.304Z,18.18
2022-09-28T20:04:33.215Z,18.09
2022-09-28T20:07:01.868Z,18.11
2022-09-28T20:09:31.217Z,17.96
2022-09-28T20:11:59.188Z,17.88
2022-09-28T20:14:32.882Z,17.80
2022-09-28T20:17:04.541Z,17.68
2022-09-28T20:19:32.712Z,17.74
2022-09-28T20:22:02.870Z,17.79
2022-09-28T20:24:32.652Z,17.74
2022-09-28T20:27:01.492Z,17.73
2022-09-28T20:29:31.877Z,17.50
2022-09-28T20:32:00.489Z,17.49
2022-09-28T20:34:28.439Z,17.25
2022-09-28T20:36:56.344Z,17.19
2022-09-28T20:39:24.282Z,17.12
2022-09-28T20:41:54.010Z,16.95
2022-09-28T20:44:22.002Z,16.81
2022-09-28T20:46:51.421Z,16.71
2022-09-28T20:49:28.014Z,16.46
2022-09-28T20:51:55.958Z,16.54
2022-09-28T20:54:23.838Z,16.65
2022-09-28T20:56:53.132Z,16.70
2022-09-28T20:59:22.912Z,16.71
2022-09-28T21:01:51.089Z,16.52
2022-09-28T21:04:19.524Z,16.36
2022-09-28T21:06:47.522Z,16.29
2022-09-28T21:09:15.859Z,16.31
2022-09-28T21:11:43.727Z,16.31
2022-09-28T21:14:13.020Z,16.14
2022-09-28T21:16:40.999Z,16.25
2022-09-28T21:19:08.851Z,16.34
2022-09-28T21:21:36.775Z,16.32
2022-09-28T21:24:04.913Z,16.36
2022-09-28T21:26:33.176Z,16.41
2022-09-28T21:29:03.254Z,16.34
2022-09-28T21:31:37.844Z,16.33
2022-09-28T21:34:05.801Z,16.26
2022-09-28T21:36:34.429Z,16.29
2022-09-28T21:39:04.148Z,16.25
2022-09-28T21:41:35.221Z,16.30
2022-09-28T21:44:03.373Z,16.30
2022-09-28T21:46:34.304Z,16.11
2022-09-28T21:49:02.852Z,16.12
2022-09-28T21:51:31.511Z,16.09
2022-09-28T21:53:59.460Z,16.09
2022-09-28T21:56:27.827Z,15.73
2022-09-28T21:58:55.772Z,15.80
2022-09-28T22:01:26.095Z,15.89
2022-09-28T22:03:56.928Z,15.83
2022-09-28T22:06:27.953Z,16.00
2022-09-28T22:08:56.043Z,16.04
2022-09-28T22:11:25.820Z,16.17
2022-09-28T22:13:55.785Z,16.25
2022-09-28T22:16:25.653Z,16.26
2022-09-28T22:18:55.384Z,16.24
2022-09-28T22:21:24.710Z,16.14
2022-09-28T22:23:52.964Z,16.00
2022-09-28T22:26:23.502Z,16.07
2022-09-28T22:28:53.399Z,16.16
2022-09-28T22:31:24.137Z,16.32
2022-09-28T22:33:52.105Z,16.24
2022-09-28T22:36:21.697Z,16.23
2022-09-28T22:38:50.202Z,16.23
2022-09-28T22:41:20.873Z,16.12
2022-09-28T22:43:49.315Z,16.17
2022-09-28T22:46:19.356Z,16.18
2022-09-28T22:48:48.579Z,16.16
2022-09-28T22:51:16.991Z,16.20
2022-09-28T22:53:46.881Z,15.74
2022-09-28T22:56:18.757Z,15.95
2022-09-28T22:58:47.953Z,16.11
2022-09-28T23:01:18.526Z,16.23
2022-09-28T23:03:46.874Z,16.00
2022-09-28T23:06:17.405Z,16.02
2022-09-28T23:08:47.442Z,16.18
2022-09-28T23:11:16.150Z,16.22
2022-09-28T23:13:44.858Z,16.25
2022-09-28T23:16:14.926Z,16.35
2022-09-28T23:18:43.660Z,16.36
2022-09-28T23:21:13.446Z,16.37
2022-09-28T23:23:41.312Z,16.28
2022-09-28T23:26:16.116Z,16.03
2022-09-28T23:28:44.687Z,16.11
2022-09-28T23:31:15.263Z,16.16
2022-09-28T23:33:43.291Z,16.22
2022-09-28T23:36:11.411Z,16.22
2022-09-28T23:38:40.064Z,15.88
2022-09-28T23:41:08.450Z,15.94
2022-09-28T23:43:37.983Z,15.94
2022-09-28T23:46:06.569Z,15.58
2022-09-28T23:48:35.074Z,15.76
2022-09-28T23:51:04.027Z,15.71
2022-09-28T23:53:33.263Z,15.62
2022-09-28T23:56:01.541Z,15.80
2022-09-28T23:58:29.506Z,15.90
